Pont Aven — FNPN — position and weather

sailwx.info

Track history (hours):
 
Tides and Currents Weather Stations Pressure Air Temp Water Temp Dewpoint Dewpoint Depression Visibility Wind Speed Wind Dir Waves Ship Positions

Pont Aven

Last reported at 2019-Jul-16 01:44 UTC. Time now 2019-Jul-16 02:31 UTC.
Position N 46°13' W 004°34'.

Length 185 m; beam 31 m.

Type: Passenger vessel. MMSI: 228183600.

Date/timePositionNaut miles runAvg speedWind from/ knotsBaromVisibWave heightAir tempDewpointWater temp
2019-Jul-16 01:44N 46°13' W 004°34'721.8
2019-Jul-16 01:26N 46°07' W 004°32'1321.4
2019-Jul-16 00:50N 45°54' W 004°29'2521.0
2019-Jul-15 23:38N 45°29' W 004°22'421.2
2019-Jul-15 23:26N 45°25' W 004°21'1321.0
2019-Jul-15 22:50N 45°13' W 004°16'1021.2
2019-Jul-15 22:21N 45°03' W 004°13'2220.8
2019-Jul-15 21:18N 44°41' W 004°07'620.9
2019-Jul-15 21:00N 44°35' W 004°05'1121.0
2019-Jul-15 20:29N 44°25' W 004°02'1021.3
2019-Jul-15 20:00N 44°15' W 003°59'1121.2
2019-Jul-15 19:30N 44°04' W 003°55'1721.3
2019-Jul-15 18:42N 43°48' W 003°50'421.2
2019-Jul-15 18:30N 43°44' W 003°49'1121.7
2019-Jul-15 18:00N 43°33' W 003°46'611.4
2019-Jul-15 17:30N 43°27' W 003°48'0 0.0
2019-Jul-15 17:01N 43°28' W 003°48'0 0.0
2019-Jul-15 16:31N 43°28' W 003°48'0 0.0
2019-Jul-15 16:00N 43°28' W 003°48'0 0.0
2019-Jul-15 15:30N 43°28' W 003°48'0 0.0
2019-Jul-15 15:00N 43°28' W 003°48'0 0.0
2019-Jul-15 14:30N 43°28' W 003°48'0 0.2
2019-Jul-15 14:00N 43°27' W 003°48'611.2
2019-Jul-15 13:31N 43°33' W 003°46'1121.4
2019-Jul-15 13:00N 43°43' W 003°50'1121.0
2019-Jul-15 12:30N 43°53' W 003°53'1120.9
2019-Jul-15 12:00N 44°04' W 003°56'917.4
2019-Jul-15 11:30N 44°12' W 003°58'917.9
2019-Jul-15 11:01N 44°21' W 004°01'918.1
2019-Jul-15 10:30N 44°30' W 004°03'2918.2
2019-Jul-15 08:54N 44°59' W 004°11'718.2
2019-Jul-15 08:30N 45°06' W 004°14'2018.2
2019-Jul-15 07:23N 45°26' W 004°19'14421.1
2019-Jul-15 00:35N 47°46' W 005°05'220.6
2019-Jul-15 00:28N 47°48' W 005°06'920.3
2019-Jul-15 00:00N 47°57' W 005°09'1019.2
2019-Jul-14 23:30N 48°07' W 005°10'1020.1
2019-Jul-14 23:01N 48°17' W 005°08'919.0
2019-Jul-14 22:31N 48°26' W 005°03'917.3
2019-Jul-14 22:00N 48°33' W 004°57'1122.1
2019-Jul-14 21:30N 48°44' W 004°53'1122.3
2019-Jul-14 21:01N 48°55' W 004°49'1522.1
2019-Jul-14 20:19N 49°10' W 004°43'4921.6
2019-Jul-14 18:03N 49°56' W 004°19'921.1
2019-Jul-14 17:38N 50°05' W 004°16'321.1
2019-Jul-14 17:31N 50°07' W 004°15'1120.8
2019-Jul-14 17:00N 50°17' W 004°11'5 9.1
2019-Jul-14 16:30N 50°22' W 004°09'0 0.0
2019-Jul-14 16:00N 50°22' W 004°09'0 0.0
2019-Jul-14 15:30N 50°22' W 004°09'0 0.0
2019-Jul-14 15:00N 50°22' W 004°09'0 0.0
2019-Jul-14 14:30N 50°22' W 004°09'0 0.0
2019-Jul-14 14:00N 50°22' W 004°09'0 0.5
2019-Jul-14 13:31N 50°22' W 004°09'612.6
2019-Jul-14 13:00N 50°15' W 004°10'1121.5
2019-Jul-14 12:31N 50°05' W 004°09'1019.8
2019-Jul-14 12:01N 49°55' W 004°09'918.3
2019-Jul-14 11:31N 49°46' W 004°07'918.8
2019-Jul-14 11:01N 49°36' W 004°05'1121.4
2019-Jul-14 10:29N 49°25' W 004°03'1621.1
2019-Jul-14 09:44N 49°09' W 004°01'26 8.2
2019-Jul-14 06:33N 48°43' W 003°58'0 0.0
2019-Jul-14 06:26N 48°43' W 003°58'0 0.0
2019-Jul-14 05:41N 48°43' W 003°58'0 0.0
2019-Jul-14 05:16N 48°43' W 003°58'0 0.0
2019-Jul-14 05:00N 48°43' W 003°58'2 3.8
2019-Jul-14 04:29N 48°45' W 003°57'1118.0
2019-Jul-14 03:52N 48°54' W 004°08'718.6
2019-Jul-14 03:30N 48°58' W 004°16'918.7
2019-Jul-14 03:00N 49°04' W 004°26'1018.4
2019-Jul-14 02:27N 49°11' W 004°38'3118.0
2019-Jul-14 00:44N 49°31' W 005°14'521.2
2019-Jul-14 00:30N 49°34' W 005°20'15520.3
2019-Jul-13 16:52N 51°33' W 007°57'821.2
2019-Jul-13 16:30N 51°39' W 008°05'1019.9
2019-Jul-13 16:00N 51°47' W 008°15'5 9.0
2019-Jul-13 15:30N 51°51' W 008°18'2 3.0
2019-Jul-13 15:00N 51°50' W 008°19'0 0.0
2019-Jul-13 14:30N 51°50' W 008°19'0 0.0
2019-Jul-13 14:00N 51°50' W 008°19'0 0.0
2019-Jul-13 13:30N 51°50' W 008°19'0 0.0
2019-Jul-13 13:01N 51°50' W 008°19'0 0.0
2019-Jul-13 12:30N 51°50' W 008°19'0 0.0
2019-Jul-13 12:01N 51°50' W 008°19'0 0.0
2019-Jul-13 11:31N 51°50' W 008°19'0 0.0
2019-Jul-13 11:00N 51°50' W 008°19'0 0.0
2019-Jul-13 10:30N 51°50' W 008°19'0 0.0
2019-Jul-13 10:00N 51°50' W 008°19'0 0.0
2019-Jul-13 09:30N 51°50' W 008°19'0 0.0
2019-Jul-13 09:00N 51°50' W 008°19'0 0.0
2019-Jul-13 08:30N 51°50' W 008°19'1 2.6
2019-Jul-13 08:00N 51°51' W 008°18'4 8.8
2019-Jul-13 07:31N 51°47' W 008°15'917.4
2019-Jul-13 07:00N 51°40' W 008°07'1019.4
2019-Jul-13 06:30N 51°33' W 007°56'918.0
2019-Jul-13 06:00N 51°27' W 007°45'918.0
2019-Jul-13 05:30N 51°21' W 007°34'8620.1
2019-Jul-13 01:13N 50°21' W 005°56'3520.2
2019-Jul-12 23:29N 49°49' W 005°33'1021.2
2019-Jul-12 23:00N 49°42' W 005°22'1121.1
2019-Jul-12 22:30N 49°35' W 005°10'69 8.5
2019-Jul-12 14:22N 48°48' W 003°51'7 1.0
2019-Jul-12 07:01N 48°43' W 003°58'0 0.0
2019-Jul-12 06:30N 48°43' W 003°58'0 0.0
2019-Jul-12 06:00N 48°43' W 003°58'2 3.7
2019-Jul-12 05:25N 48°45' W 003°57'511.5
2019-Jul-12 05:00N 48°50' W 003°57'712.4
2019-Jul-12 04:28N 48°57' W 003°57'613.0
2019-Jul-12 03:59N 49°03' W 003°58'612.6
2019-Jul-12 03:30N 49°09' W 003°58'711.8
2019-Jul-12 02:55N 49°16' W 003°59'511.5
2019-Jul-12 02:30N 49°21' W 003°58'1211.6
2019-Jul-12 01:27N 49°33' W 004°03'1211.6
2019-Jul-12 00:25N 49°44' W 004°07'1511.7
2019-Jul-11 23:11N 49°59' W 004°08'211.9
2019-Jul-11 23:00N 50°01' W 004°08'611.9
2019-Jul-11 22:30N 50°07' W 004°09'611.8
2019-Jul-11 22:00N 50°13' W 004°10'510.4
2019-Jul-11 21:31N 50°17' W 004°13'1 1.2
2019-Jul-11 21:00N 50°17' W 004°12'0 1.0
2019-Jul-11 20:30N 50°17' W 004°12'3 6.2
2019-Jul-11 19:59N 50°20' W 004°11'2 4.5
2019-Jul-11 19:30N 50°22' W 004°09'0 0.0
2019-Jul-11 19:00N 50°22' W 004°09'0 0.0
2019-Jul-11 18:30N 50°22' W 004°09'0 0.0
2019-Jul-11 18:00N 50°22' W 004°09'0 0.0
2019-Jul-11 17:30N 50°22' W 004°09'0 0.0
2019-Jul-11 17:00N 50°22' W 004°09'0 0.0
2019-Jul-11 16:30N 50°22' W 004°09'0 0.0
2019-Jul-11 16:00N 50°22' W 004°09'0 0.4
2019-Jul-11 15:30N 50°22' W 004°09'612.7
2019-Jul-11 15:00N 50°15' W 004°11'1019.3
2019-Jul-11 14:31N 50°06' W 004°15'918.0
2019-Jul-11 14:00N 49°58' W 004°20'917.9
2019-Jul-11 13:30N 49°49' W 004°23'1419.7
2019-Jul-11 12:46N 49°35' W 004°30'921.5
2019-Jul-11 12:19N 49°26' W 004°34'721.6
2019-Jul-11 12:00N 49°19' W 004°35'1321.7
2019-Jul-11 11:25N 49°07' W 004°39'1321.9
2019-Jul-11 10:48N 48°54' W 004°44'722.1
2019-Jul-11 10:30N 48°47' W 004°46'1122.3
2019-Jul-11 10:01N 48°37' W 004°50'918.6
2019-Jul-11 09:31N 48°27' W 004°51'714.9
2019-Jul-11 09:01N 48°20' W 004°48'1019.5
2019-Jul-11 08:30N 48°10' W 004°46'918.2
2019-Jul-11 08:01N 48°01' W 004°45'1019.4
2019-Jul-11 07:31N 47°52' W 004°42'1121.9
2019-Jul-11 07:01N 47°41' W 004°41'1121.6
2019-Jul-11 06:30N 47°30' W 004°39'1121.4
2019-Jul-11 06:01N 47°20' W 004°35'1121.2
2019-Jul-11 05:30N 47°09' W 004°32'1121.5
2019-Jul-11 04:59N 46°58' W 004°30'1021.0
2019-Jul-11 04:30N 46°48' W 004°27'1121.6
2019-Jul-11 04:00N 46°38' W 004°25'1121.3
2019-Jul-11 03:31N 46°27' W 004°22'1121.5
2019-Jul-11 03:01N 46°17' W 004°19'1121.4
2019-Jul-11 02:31N 46°06' W 004°17'1121.2
2019-Jul-11 02:00N 45°55' W 004°16'1121.8
2019-Jul-11 01:31N 45°45' W 004°14'1121.8
2019-Jul-11 01:00N 45°34' W 004°11'1121.7
2019-Jul-11 00:31N 45°23' W 004°09'1121.5
2019-Jul-11 00:00N 45°12' W 004°07'1121.8
2019-Jul-10 23:31N 45°02' W 004°05'1121.5
2019-Jul-10 23:00N 44°51' W 004°02'1121.3
2019-Jul-10 22:30N 44°41' W 004°00'1121.2
2019-Jul-10 22:01N 44°30' W 003°58'1121.4
2019-Jul-10 21:31N 44°19' W 003°56'1121.6
2019-Jul-10 21:01N 44°09' W 003°54'1621.7
2019-Jul-10 20:15N 43°52' W 003°50'521.7
2019-Jul-10 20:00N 43°48' W 003°48'1019.5
2019-Jul-10 19:30N 43°38' W 003°46'5 9.7
2019-Jul-10 19:00N 43°33' W 003°45'5 9.1
2019-Jul-10 18:30N 43°29' W 003°45'3 5.7
2019-Jul-10 18:00N 43°28' W 003°48'0 0.0
2019-Jul-10 17:29N 43°28' W 003°48'0 0.0
2019-Jul-10 16:57N 43°28' W 003°48'0 0.0
2019-Jul-10 16:30N 43°28' W 003°48'0 0.0
2019-Jul-10 16:00N 43°28' W 003°48'0 0.0
2019-Jul-10 15:30N 43°28' W 003°48'0 0.0
2019-Jul-10 15:00N 43°28' W 003°48'4 4.3
2019-Jul-10 14:06N 43°31' W 003°45'221.6
2019-Jul-10 14:00N 43°33' W 003°46'1121.6
2019-Jul-10 13:30N 43°43' W 003°50'1122.2
2019-Jul-10 13:01N 43°54' W 003°51'1121.7
2019-Jul-10 12:31N 44°05' W 003°54'1421.9
2019-Jul-10 11:52N 44°18' W 004°01'822.2
2019-Jul-10 11:30N 44°26' W 004°03'1122.0
2019-Jul-10 11:00N 44°36' W 004°05'1122.1
2019-Jul-10 10:30N 44°47' W 004°08'1122.3
2019-Jul-10 10:01N 44°58' W 004°12'1122.0
2019-Jul-10 09:30N 45°09' W 004°15'1121.6
2019-Jul-10 09:01N 45°19' W 004°18'1121.3
2019-Jul-10 08:30N 45°30' W 004°22'1121.4
2019-Jul-10 08:01N 45°40' W 004°25'1121.6
2019-Jul-10 07:31N 45°51' W 004°28'1121.4
2019-Jul-10 07:00N 46°01' W 004°31'1121.3
2019-Jul-10 06:31N 46°12' W 004°35'1121.2
2019-Jul-10 06:01N 46°22' W 004°38'1121.4
2019-Jul-10 05:30N 46°33' W 004°41'1121.5
2019-Jul-10 05:01N 46°43' W 004°44'1121.2
2019-Jul-10 04:30N 46°53' W 004°48'1121.0
2019-Jul-10 04:00N 47°04' W 004°51'4421.5
2019-Jul-10 01:58N 47°46' W 005°06'1122.8
2019-Jul-10 01:30N 47°57' W 005°10'1223.2
2019-Jul-10 01:00N 48°08' W 005°10'1122.5
2019-Jul-10 00:30N 48°19' W 005°09'1019.2
2019-Jul-10 00:00N 48°27' W 005°01'1020.4
2019-Jul-09 23:30N 48°37' W 004°55'1121.4
2019-Jul-09 23:00N 48°47' W 004°50'1020.9
2019-Jul-09 22:30N 48°57' W 004°45'1020.8
2019-Jul-09 22:00N 49°07' W 004°40'4021.1
2019-Jul-09 20:07N 49°45' W 004°25'321.4
2019-Jul-09 20:00N 49°48' W 004°24'1121.5
2019-Jul-09 19:30N 49°58' W 004°20'1121.6
2019-Jul-09 19:00N 50°08' W 004°15'1121.4
2019-Jul-09 18:30N 50°19' W 004°11'3 6.4
2019-Jul-09 18:00N 50°22' W 004°09'0 0.0
2019-Jul-09 17:30N 50°22' W 004°09'0 0.0
2019-Jul-09 17:00N 50°22' W 004°09'0 0.0
2019-Jul-09 16:30N 50°22' W 004°09'0 0.0
2019-Jul-09 16:00N 50°22' W 004°09'0 0.0
2019-Jul-09 15:30N 50°22' W 004°09'2 4.6
2019-Jul-09 15:00N 50°20' W 004°10'1019.7
2019-Jul-09 14:31N 50°10' W 004°14'1121.4
2019-Jul-09 14:00N 49°60' W 004°18'1121.5
2019-Jul-09 13:31N 49°49' W 004°21'1121.2
2019-Jul-09 12:58N 49°38' W 004°27'1021.6
2019-Jul-09 12:31N 49°29' W 004°30'1121.7
2019-Jul-09 12:01N 49°19' W 004°37'1121.8
2019-Jul-09 11:30N 49°08' W 004°42'1121.9
2019-Jul-09 11:01N 48°58' W 004°47'1122.0
2019-Jul-09 10:30N 48°47' W 004°51'1122.2
2019-Jul-09 10:01N 48°37' W 004°56'1019.6
2019-Jul-09 09:30N 48°27' W 005°01'918.4
2019-Jul-09 09:01N 48°19' W 005°08'1122.7
2019-Jul-09 08:31N 48°08' W 005°09'1122.8
2019-Jul-09 08:00N 47°57' W 005°08'1122.5
2019-Jul-09 07:30N 47°46' W 005°05'1221.9
2019-Jul-09 06:58N 47°34' W 005°01'1122.4
2019-Jul-09 06:28N 47°23' W 004°57'1022.2
2019-Jul-09 06:00N 47°13' W 004°54'1122.3
2019-Jul-09 05:30N 47°02' W 004°51'1122.3
2019-Jul-09 05:00N 46°51' W 004°47'1122.2
2019-Jul-09 04:30N 46°41' W 004°43'1121.6
2019-Jul-09 04:00N 46°30' W 004°39'1122.0
2019-Jul-09 03:30N 46°19' W 004°35'1121.4
2019-Jul-09 03:00N 46°09' W 004°32'1121.3
2019-Jul-09 02:30N 45°58' W 004°30'1021.4
2019-Jul-09 02:00N 45°48' W 004°26'1121.4
2019-Jul-09 01:30N 45°37' W 004°22'11521.3
2019-Jul-08 20:05N 43°44' W 003°49'221.5
2019-Jul-08 19:59N 43°42' W 003°48'1021.5
2019-Jul-08 19:30N 43°32' W 003°45'5 9.8
2019-Jul-08 18:59N 43°28' W 003°48'0 0.0
2019-Jul-08 18:30N 43°28' W 003°48'0 0.0
2019-Jul-08 18:00N 43°28' W 003°48'0 0.0
2019-Jul-08 17:30N 43°28' W 003°48'0 0.0
2019-Jul-08 16:54N 43°28' W 003°48'0 0.0
2019-Jul-08 16:29N 43°28' W 003°48'0 0.0
2019-Jul-08 15:57N 43°28' W 003°48'0 0.0
2019-Jul-08 15:28N 43°28' W 003°48'0 0.0
2019-Jul-08 15:00N 43°28' W 003°48'0 0.0
2019-Jul-08 14:30N 43°28' W 003°48'4 4.6
2019-Jul-08 13:36N 43°31' W 003°46'220.3
2019-Jul-08 13:31N 43°33' W 003°46'1019.4
2019-Jul-08 13:00N 43°43' W 003°48'1017.9
2019-Jul-08 12:26N 43°53' W 003°51'1517.5
2019-Jul-08 11:35N 44°07' W 003°57'1317.6
2019-Jul-08 10:50N 44°20' W 004°01'617.9
2019-Jul-08 10:30N 44°26' W 004°03'3320.0
2019-Jul-08 08:53N 44°58' W 004°12'1422.0
2019-Jul-08 08:15N 45°11' W 004°16'521.7
2019-Jul-08 08:00N 45°16' W 004°17'1121.2
2019-Jul-08 07:29N 45°27' W 004°20'1321.3
2019-Jul-08 06:53N 45°40' W 004°24'821.3
2019-Jul-08 06:30N 45°47' W 004°27'1721.1
2019-Jul-08 05:43N 46°04' W 004°33'521.0
2019-Jul-08 05:28N 46°09' W 004°34'1520.8
2019-Jul-08 04:44N 46°24' W 004°39'1321.7
2019-Jul-08 04:10N 46°36' W 004°42'420.1
2019-Jul-08 03:59N 46°39' W 004°43'1520.8
2019-Jul-08 03:15N 46°54' W 004°49'620.5
2019-Jul-08 02:57N 46°60' W 004°51'920.9
2019-Jul-08 02:30N 47°09' W 004°54'1020.6
2019-Jul-08 02:00N 47°19' W 004°57'1021.2
2019-Jul-08 01:30N 47°29' W 005°02'1121.3
2019-Jul-08 01:00N 47°39' W 005°07'1121.7
2019-Jul-08 00:30N 47°50' W 005°12'1122.5
2019-Jul-08 00:01N 48°00' W 005°17'1121.6
2019-Jul-07 23:30N 48°11' W 005°11'1121.8
2019-Jul-07 23:00N 48°21' W 005°07'917.2
2019-Jul-07 22:31N 48°28' W 004°60'1121.7
2019-Jul-07 22:00N 48°39' W 004°55'1121.3
2019-Jul-07 21:30N 48°49' W 004°50'1020.8
2019-Jul-07 21:00N 48°59' W 004°45'1020.4
2019-Jul-07 20:31N 49°08' W 004°40'1020.1
2019-Jul-07 20:00N 49°18' W 004°36'1020.5
2019-Jul-07 19:30N 49°28' W 004°32'3721.0
2019-Jul-07 17:45N 50°04' W 004°17'521.3
2019-Jul-07 17:30N 50°09' W 004°15'1120.6
2019-Jul-07 16:59N 50°19' W 004°11'3 5.9
2019-Jul-07 16:31N 50°22' W 004°09'0 0.0
2019-Jul-07 16:01N 50°22' W 004°09'0 0.0
2019-Jul-07 15:31N 50°22' W 004°09'0 0.0
2019-Jul-07 15:01N 50°22' W 004°09'0 0.0
2019-Jul-07 14:31N 50°22' W 004°09'0 0.0
2019-Jul-07 14:00N 50°22' W 004°09'0 0.3
2019-Jul-07 13:31N 50°22' W 004°09'510.7
2019-Jul-07 13:00N 50°16' W 004°10'1020.4
2019-Jul-07 12:31N 50°06' W 004°07'1020.0
2019-Jul-07 12:00N 49°57' W 004°02'1020.4
2019-Jul-07 11:30N 49°47' W 003°59'1121.2
2019-Jul-07 11:00N 49°36' W 004°01'1121.3
2019-Jul-07 10:28N 49°25' W 004°01'1021.1
2019-Jul-07 10:00N 49°15' W 003°60'1221.1
2019-Jul-07 09:27N 49°03' W 003°59'1221.1
2019-Jul-07 08:52N 48°51' W 003°58'717.8
2019-Jul-07 08:27N 48°44' W 003°57'1 0.8
2019-Jul-07 07:47N 48°43' W 003°58'0 0.0
2019-Jul-07 07:29N 48°43' W 003°58'0 0.0
2019-Jul-07 06:58N 48°43' W 003°58'0 0.0
2019-Jul-07 06:29N 48°43' W 003°58'0 0.0
2019-Jul-07 06:00N 48°43' W 003°58'0 0.0
2019-Jul-07 05:27N 48°43' W 003°58'0 0.0
2019-Jul-07 04:55N 48°43' W 003°58'2 4.0
2019-Jul-07 04:30N 48°45' W 003°57'1120.0
2019-Jul-07 03:59N 48°53' W 004°07'1020.8
2019-Jul-07 03:30N 48°59' W 004°19'817.0
2019-Jul-07 03:00N 49°04' W 004°29'1717.2
2019-Jul-07 02:00N 49°16' W 004°48'917.4
2019-Jul-07 01:30N 49°22' W 004°57'917.3
2019-Jul-07 01:01N 49°28' W 005°08'917.2
2019-Jul-07 00:30N 49°33' W 005°19'917.5
2019-Jul-07 00:00N 49°38' W 005°29'917.8
2019-Jul-06 23:30N 49°44' W 005°40'918.6
2019-Jul-06 23:00N 49°49' W 005°51'1020.5
2019-Jul-06 22:30N 49°57' W 006°02'1422.1
2019-Jul-06 21:53N 50°11' W 006°03'1021.3
2019-Jul-06 21:26N 50°21' W 006°03'1121.4
2019-Jul-06 20:55N 50°29' W 006°15'1121.3
2019-Jul-06 20:25N 50°36' W 006°27'921.5
2019-Jul-06 20:00N 50°42' W 006°37'1121.5
2019-Jul-06 19:30N 50°50' W 006°49'1521.6
2019-Jul-06 18:49N 51°00' W 007°06'4321.5
2019-Jul-06 16:48N 51°31' W 007°54'621.3
2019-Jul-06 16:30N 51°36' W 008°02'1121.1
2019-Jul-06 16:00N 51°44' W 008°12'713.7
2019-Jul-06 15:31N 51°50' W 008°16'2 4.5
2019-Jul-06 15:00N 51°50' W 008°19'0 0.0
2019-Jul-06 14:30N 51°50' W 008°19'0 0.0
2019-Jul-06 14:00N 51°50' W 008°19'0 0.0
2019-Jul-06 13:30N 51°50' W 008°19'0 0.0
2019-Jul-06 13:00N 51°50' W 008°19'0 0.0
2019-Jul-06 12:30N 51°50' W 008°19'0 0.0
2019-Jul-06 12:00N 51°50' W 008°19'0 0.0
2019-Jul-06 11:30N 51°50' W 008°19'0 0.0
2019-Jul-06 11:00N 51°50' W 008°19'0 0.0
2019-Jul-06 10:30N 51°50' W 008°19'0 0.0
2019-Jul-06 10:00N 51°50' W 008°19'0 0.0
2019-Jul-06 09:30N 51°50' W 008°19'0 0.0
2019-Jul-06 09:00N 51°50' W 008°19'0 0.0
2019-Jul-06 08:30N 51°50' W 008°19'1 1.9
2019-Jul-06 08:00N 51°51' W 008°18'4 8.0
2019-Jul-06 07:30N 51°47' W 008°16'816.9
2019-Jul-06 07:00N 51°40' W 008°07'918.1
2019-Jul-06 06:30N 51°34' W 007°57'918.1
2019-Jul-06 06:00N 51°28' W 007°47'3418.2
2019-Jul-06 04:09N 51°04' W 007°07'718.4
2019-Jul-06 03:47N 50°59' W 006°60'1018.2
2019-Jul-06 03:14N 50°53' W 006°49'2121.4
2019-Jul-06 02:17N 50°39' W 006°24'  
Track history (hours):
 
Tides and Currents Weather Stations Pressure Air Temp Water Temp Dewpoint Dewpoint Depression Visibility Wind Speed Wind Dir Waves Ship Positions

Pont Aven

Last reported at 2019-Jul-16 01:44 UTC. Time now 2019-Jul-16 02:31 UTC.
Position N 46°13' W 004°34'.

Length 185 m; beam 31 m.

Type: Passenger vessel. MMSI: 228183600.

Date/timePositionNaut miles runAvg speedWind from/ knotsBaromVisibWave heightAir tempDewpointWater temp
2019-Jul-16 01:44N 46°13' W 004°34'721.8
2019-Jul-16 01:26N 46°07' W 004°32'1321.4
2019-Jul-16 00:50N 45°54' W 004°29'2521.0
2019-Jul-15 23:38N 45°29' W 004°22'421.2
2019-Jul-15 23:26N 45°25' W 004°21'1321.0
2019-Jul-15 22:50N 45°13' W 004°16'1021.2
2019-Jul-15 22:21N 45°03' W 004°13'2220.8
2019-Jul-15 21:18N 44°41' W 004°07'620.9
2019-Jul-15 21:00N 44°35' W 004°05'1121.0
2019-Jul-15 20:29N 44°25' W 004°02'1021.3
2019-Jul-15 20:00N 44°15' W 003°59'1121.2
2019-Jul-15 19:30N 44°04' W 003°55'1721.3
2019-Jul-15 18:42N 43°48' W 003°50'421.2
2019-Jul-15 18:30N 43°44' W 003°49'1121.7
2019-Jul-15 18:00N 43°33' W 003°46'611.4
2019-Jul-15 17:30N 43°27' W 003°48'0 0.0
2019-Jul-15 17:01N 43°28' W 003°48'0 0.0
2019-Jul-15 16:31N 43°28' W 003°48'0 0.0
2019-Jul-15 16:00N 43°28' W 003°48'0 0.0
2019-Jul-15 15:30N 43°28' W 003°48'0 0.0
2019-Jul-15 15:00N 43°28' W 003°48'0 0.0
2019-Jul-15 14:30N 43°28' W 003°48'0 0.2
2019-Jul-15 14:00N 43°27' W 003°48'611.2
2019-Jul-15 13:31N 43°33' W 003°46'1121.4
2019-Jul-15 13:00N 43°43' W 003°50'1121.0
2019-Jul-15 12:30N 43°53' W 003°53'1120.9
2019-Jul-15 12:00N 44°04' W 003°56'917.4
2019-Jul-15 11:30N 44°12' W 003°58'917.9
2019-Jul-15 11:01N 44°21' W 004°01'918.1
2019-Jul-15 10:30N 44°30' W 004°03'2918.2
2019-Jul-15 08:54N 44°59' W 004°11'718.2
2019-Jul-15 08:30N 45°06' W 004°14'2018.2
2019-Jul-15 07:23N 45°26' W 004°19'14421.1
2019-Jul-15 00:35N 47°46' W 005°05'220.6
2019-Jul-15 00:28N 47°48' W 005°06'920.3
2019-Jul-15 00:00N 47°57' W 005°09'1019.2
2019-Jul-14 23:30N 48°07' W 005°10'1020.1
2019-Jul-14 23:01N 48°17' W 005°08'919.0
2019-Jul-14 22:31N 48°26' W 005°03'917.3
2019-Jul-14 22:00N 48°33' W 004°57'1122.1
2019-Jul-14 21:30N 48°44' W 004°53'1122.3
2019-Jul-14 21:01N 48°55' W 004°49'1522.1
2019-Jul-14 20:19N 49°10' W 004°43'4921.6
2019-Jul-14 18:03N 49°56' W 004°19'921.1
2019-Jul-14 17:38N 50°05' W 004°16'321.1
2019-Jul-14 17:31N 50°07' W 004°15'1120.8
2019-Jul-14 17:00N 50°17' W 004°11'5 9.1
2019-Jul-14 16:30N 50°22' W 004°09'0 0.0
2019-Jul-14 16:00N 50°22' W 004°09'0 0.0
2019-Jul-14 15:30N 50°22' W 004°09'0 0.0
2019-Jul-14 15:00N 50°22' W 004°09'0 0.0
2019-Jul-14 14:30N 50°22' W 004°09'0 0.0
2019-Jul-14 14:00N 50°22' W 004°09'0 0.5
2019-Jul-14 13:31N 50°22' W 004°09'612.6
2019-Jul-14 13:00N 50°15' W 004°10'1121.5
2019-Jul-14 12:31N 50°05' W 004°09'1019.8
2019-Jul-14 12:01N 49°55' W 004°09'918.3
2019-Jul-14 11:31N 49°46' W 004°07'918.8
2019-Jul-14 11:01N 49°36' W 004°05'1121.4
2019-Jul-14 10:29N 49°25' W 004°03'1621.1
2019-Jul-14 09:44N 49°09' W 004°01'26 8.2
2019-Jul-14 06:33N 48°43' W 003°58'0 0.0
2019-Jul-14 06:26N 48°43' W 003°58'0 0.0
2019-Jul-14 05:41N 48°43' W 003°58'0 0.0
2019-Jul-14 05:16N 48°43' W 003°58'0 0.0
2019-Jul-14 05:00N 48°43' W 003°58'2 3.8
2019-Jul-14 04:29N 48°45' W 003°57'1118.0
2019-Jul-14 03:52N 48°54' W 004°08'718.6
2019-Jul-14 03:30N 48°58' W 004°16'918.7
2019-Jul-14 03:00N 49°04' W 004°26'1018.4
2019-Jul-14 02:27N 49°11' W 004°38'3118.0
2019-Jul-14 00:44N 49°31' W 005°14'521.2
2019-Jul-14 00:30N 49°34' W 005°20'15520.3
2019-Jul-13 16:52N 51°33' W 007°57'821.2
2019-Jul-13 16:30N 51°39' W 008°05'1019.9
2019-Jul-13 16:00N 51°47' W 008°15'5 9.0
2019-Jul-13 15:30N 51°51' W 008°18'2 3.0
2019-Jul-13 15:00N 51°50' W 008°19'0 0.0
2019-Jul-13 14:30N 51°50' W 008°19'0 0.0
2019-Jul-13 14:00N 51°50' W 008°19'0 0.0
2019-Jul-13 13:30N 51°50' W 008°19'0 0.0
2019-Jul-13 13:01N 51°50' W 008°19'0 0.0
2019-Jul-13 12:30N 51°50' W 008°19'0 0.0
2019-Jul-13 12:01N 51°50' W 008°19'0 0.0
2019-Jul-13 11:31N 51°50' W 008°19'0 0.0
2019-Jul-13 11:00N 51°50' W 008°19'0 0.0
2019-Jul-13 10:30N 51°50' W 008°19'0 0.0
2019-Jul-13 10:00N 51°50' W 008°19'0 0.0
2019-Jul-13 09:30N 51°50' W 008°19'0 0.0
2019-Jul-13 09:00N 51°50' W 008°19'0 0.0
2019-Jul-13 08:30N 51°50' W 008°19'1 2.6
2019-Jul-13 08:00N 51°51' W 008°18'4 8.8
2019-Jul-13 07:31N 51°47' W 008°15'917.4
2019-Jul-13 07:00N 51°40' W 008°07'1019.4
2019-Jul-13 06:30N 51°33' W 007°56'918.0
2019-Jul-13 06:00N 51°27' W 007°45'918.0
2019-Jul-13 05:30N 51°21' W 007°34'8620.1
2019-Jul-13 01:13N 50°21' W 005°56'3520.2
2019-Jul-12 23:29N 49°49' W 005°33'1021.2
2019-Jul-12 23:00N 49°42' W 005°22'1121.1
2019-Jul-12 22:30N 49°35' W 005°10'69 8.5
2019-Jul-12 14:22N 48°48' W 003°51'7 1.0
2019-Jul-12 07:01N 48°43' W 003°58'0 0.0
2019-Jul-12 06:30N 48°43' W 003°58'0 0.0
2019-Jul-12 06:00N 48°43' W 003°58'2 3.7
2019-Jul-12 05:25N 48°45' W 003°57'511.5
2019-Jul-12 05:00N 48°50' W 003°57'712.4
2019-Jul-12 04:28N 48°57' W 003°57'613.0
2019-Jul-12 03:59N 49°03' W 003°58'612.6
2019-Jul-12 03:30N 49°09' W 003°58'711.8
2019-Jul-12 02:55N 49°16' W 003°59'511.5
2019-Jul-12 02:30N 49°21' W 003°58'1211.6
2019-Jul-12 01:27N 49°33' W 004°03'1211.6
2019-Jul-12 00:25N 49°44' W 004°07'1511.7
2019-Jul-11 23:11N 49°59' W 004°08'211.9
2019-Jul-11 23:00N 50°01' W 004°08'611.9
2019-Jul-11 22:30N 50°07' W 004°09'611.8
2019-Jul-11 22:00N 50°13' W 004°10'510.4
2019-Jul-11 21:31N 50°17' W 004°13'1 1.2
2019-Jul-11 21:00N 50°17' W 004°12'0 1.0
2019-Jul-11 20:30N 50°17' W 004°12'3 6.2
2019-Jul-11 19:59N 50°20' W 004°11'2 4.5
2019-Jul-11 19:30N 50°22' W 004°09'0 0.0
2019-Jul-11 19:00N 50°22' W 004°09'0 0.0
2019-Jul-11 18:30N 50°22' W 004°09'0 0.0
2019-Jul-11 18:00N 50°22' W 004°09'0 0.0
2019-Jul-11 17:30N 50°22' W 004°09'0 0.0
2019-Jul-11 17:00N 50°22' W 004°09'0 0.0
2019-Jul-11 16:30N 50°22' W 004°09'0 0.0
2019-Jul-11 16:00N 50°22' W 004°09'0 0.4
2019-Jul-11 15:30N 50°22' W 004°09'612.7
2019-Jul-11 15:00N 50°15' W 004°11'1019.3
2019-Jul-11 14:31N 50°06' W 004°15'918.0
2019-Jul-11 14:00N 49°58' W 004°20'917.9
2019-Jul-11 13:30N 49°49' W 004°23'1419.7
2019-Jul-11 12:46N 49°35' W 004°30'921.5
2019-Jul-11 12:19N 49°26' W 004°34'721.6
2019-Jul-11 12:00N 49°19' W 004°35'1321.7
2019-Jul-11 11:25N 49°07' W 004°39'1321.9
2019-Jul-11 10:48N 48°54' W 004°44'722.1
2019-Jul-11 10:30N 48°47' W 004°46'1122.3
2019-Jul-11 10:01N 48°37' W 004°50'918.6
2019-Jul-11 09:31N 48°27' W 004°51'714.9
2019-Jul-11 09:01N 48°20' W 004°48'1019.5
2019-Jul-11 08:30N 48°10' W 004°46'918.2
2019-Jul-11 08:01N 48°01' W 004°45'1019.4
2019-Jul-11 07:31N 47°52' W 004°42'1121.9
2019-Jul-11 07:01N 47°41' W 004°41'1121.6
2019-Jul-11 06:30N 47°30' W 004°39'1121.4
2019-Jul-11 06:01N 47°20' W 004°35'1121.2
2019-Jul-11 05:30N 47°09' W 004°32'1121.5
2019-Jul-11 04:59N 46°58' W 004°30'1021.0
2019-Jul-11 04:30N 46°48' W 004°27'1121.6
2019-Jul-11 04:00N 46°38' W 004°25'1121.3
2019-Jul-11 03:31N 46°27' W 004°22'1121.5
2019-Jul-11 03:01N 46°17' W 004°19'1121.4
2019-Jul-11 02:31N 46°06' W 004°17'1121.2
2019-Jul-11 02:00N 45°55' W 004°16'1121.8
2019-Jul-11 01:31N 45°45' W 004°14'1121.8
2019-Jul-11 01:00N 45°34' W 004°11'1121.7
2019-Jul-11 00:31N 45°23' W 004°09'1121.5
2019-Jul-11 00:00N 45°12' W 004°07'1121.8
2019-Jul-10 23:31N 45°02' W 004°05'1121.5
2019-Jul-10 23:00N 44°51' W 004°02'1121.3
2019-Jul-10 22:30N 44°41' W 004°00'1121.2
2019-Jul-10 22:01N 44°30' W 003°58'1121.4
2019-Jul-10 21:31N 44°19' W 003°56'1121.6
2019-Jul-10 21:01N 44°09' W 003°54'1621.7
2019-Jul-10 20:15N 43°52' W 003°50'521.7
2019-Jul-10 20:00N 43°48' W 003°48'1019.5
2019-Jul-10 19:30N 43°38' W 003°46'5 9.7
2019-Jul-10 19:00N 43°33' W 003°45'5 9.1
2019-Jul-10 18:30N 43°29' W 003°45'3 5.7
2019-Jul-10 18:00N 43°28' W 003°48'0 0.0
2019-Jul-10 17:29N 43°28' W 003°48'0 0.0
2019-Jul-10 16:57N 43°28' W 003°48'0 0.0
2019-Jul-10 16:30N 43°28' W 003°48'0 0.0
2019-Jul-10 16:00N 43°28' W 003°48'0 0.0
2019-Jul-10 15:30N 43°28' W 003°48'0 0.0
2019-Jul-10 15:00N 43°28' W 003°48'4 4.3
2019-Jul-10 14:06N 43°31' W 003°45'221.6
2019-Jul-10 14:00N 43°33' W 003°46'1121.6
2019-Jul-10 13:30N 43°43' W 003°50'1122.2
2019-Jul-10 13:01N 43°54' W 003°51'1121.7
2019-Jul-10 12:31N 44°05' W 003°54'1421.9
2019-Jul-10 11:52N 44°18' W 004°01'822.2
2019-Jul-10 11:30N 44°26' W 004°03'1122.0
2019-Jul-10 11:00N 44°36' W 004°05'1122.1
2019-Jul-10 10:30N 44°47' W 004°08'1122.3
2019-Jul-10 10:01N 44°58' W 004°12'1122.0
2019-Jul-10 09:30N 45°09' W 004°15'1121.6
2019-Jul-10 09:01N 45°19' W 004°18'1121.3
2019-Jul-10 08:30N 45°30' W 004°22'1121.4
2019-Jul-10 08:01N 45°40' W 004°25'1121.6
2019-Jul-10 07:31N 45°51' W 004°28'1121.4
2019-Jul-10 07:00N 46°01' W 004°31'1121.3
2019-Jul-10 06:31N 46°12' W 004°35'1121.2
2019-Jul-10 06:01N 46°22' W 004°38'1121.4
2019-Jul-10 05:30N 46°33' W 004°41'1121.5
2019-Jul-10 05:01N 46°43' W 004°44'1121.2
2019-Jul-10 04:30N 46°53' W 004°48'1121.0
2019-Jul-10 04:00N 47°04' W 004°51'4421.5
2019-Jul-10 01:58N 47°46' W 005°06'1122.8
2019-Jul-10 01:30N 47°57' W 005°10'1223.2
2019-Jul-10 01:00N 48°08' W 005°10'1122.5
2019-Jul-10 00:30N 48°19' W 005°09'1019.2
2019-Jul-10 00:00N 48°27' W 005°01'1020.4
2019-Jul-09 23:30N 48°37' W 004°55'1121.4
2019-Jul-09 23:00N 48°47' W 004°50'1020.9
2019-Jul-09 22:30N 48°57' W 004°45'1020.8
2019-Jul-09 22:00N 49°07' W 004°40'4021.1
2019-Jul-09 20:07N 49°45' W 004°25'321.4
2019-Jul-09 20:00N 49°48' W 004°24'1121.5
2019-Jul-09 19:30N 49°58' W 004°20'1121.6
2019-Jul-09 19:00N 50°08' W 004°15'1121.4
2019-Jul-09 18:30N 50°19' W 004°11'3 6.4
2019-Jul-09 18:00N 50°22' W 004°09'0 0.0
2019-Jul-09 17:30N 50°22' W 004°09'0 0.0
2019-Jul-09 17:00N 50°22' W 004°09'0 0.0
2019-Jul-09 16:30N 50°22' W 004°09'0 0.0
2019-Jul-09 16:00N 50°22' W 004°09'0 0.0
2019-Jul-09 15:30N 50°22' W 004°09'2 4.6
2019-Jul-09 15:00N 50°20' W 004°10'1019.7
2019-Jul-09 14:31N 50°10' W 004°14'1121.4
2019-Jul-09 14:00N 49°60' W 004°18'1121.5
2019-Jul-09 13:31N 49°49' W 004°21'1121.2
2019-Jul-09 12:58N 49°38' W 004°27'1021.6
2019-Jul-09 12:31N 49°29' W 004°30'1121.7
2019-Jul-09 12:01N 49°19' W 004°37'1121.8
2019-Jul-09 11:30N 49°08' W 004°42'1121.9
2019-Jul-09 11:01N 48°58' W 004°47'1122.0
2019-Jul-09 10:30N 48°47' W 004°51'1122.2
2019-Jul-09 10:01N 48°37' W 004°56'1019.6
2019-Jul-09 09:30N 48°27' W 005°01'918.4
2019-Jul-09 09:01N 48°19' W 005°08'1122.7
2019-Jul-09 08:31N 48°08' W 005°09'1122.8
2019-Jul-09 08:00N 47°57' W 005°08'1122.5
2019-Jul-09 07:30N 47°46' W 005°05'1221.9
2019-Jul-09 06:58N 47°34' W 005°01'1122.4
2019-Jul-09 06:28N 47°23' W 004°57'1022.2
2019-Jul-09 06:00N 47°13' W 004°54'1122.3
2019-Jul-09 05:30N 47°02' W 004°51'1122.3
2019-Jul-09 05:00N 46°51' W 004°47'1122.2
2019-Jul-09 04:30N 46°41' W 004°43'1121.6
2019-Jul-09 04:00N 46°30' W 004°39'1122.0
2019-Jul-09 03:30N 46°19' W 004°35'1121.4
2019-Jul-09 03:00N 46°09' W 004°32'1121.3
2019-Jul-09 02:30N 45°58' W 004°30'1021.4
2019-Jul-09 02:00N 45°48' W 004°26'1121.4
2019-Jul-09 01:30N 45°37' W 004°22'11521.3
2019-Jul-08 20:05N 43°44' W 003°49'221.5
2019-Jul-08 19:59N 43°42' W 003°48'1021.5
2019-Jul-08 19:30N 43°32' W 003°45'5 9.8
2019-Jul-08 18:59N 43°28' W 003°48'0 0.0
2019-Jul-08 18:30N 43°28' W 003°48'0 0.0
2019-Jul-08 18:00N 43°28' W 003°48'0 0.0
2019-Jul-08 17:30N 43°28' W 003°48'0 0.0
2019-Jul-08 16:54N 43°28' W 003°48'0 0.0
2019-Jul-08 16:29N 43°28' W 003°48'0 0.0
2019-Jul-08 15:57N 43°28' W 003°48'0 0.0
2019-Jul-08 15:28N 43°28' W 003°48'0 0.0
2019-Jul-08 15:00N 43°28' W 003°48'0 0.0
2019-Jul-08 14:30N 43°28' W 003°48'4 4.6
2019-Jul-08 13:36N 43°31' W 003°46'220.3
2019-Jul-08 13:31N 43°33' W 003°46'1019.4
2019-Jul-08 13:00N 43°43' W 003°48'1017.9
2019-Jul-08 12:26N 43°53' W 003°51'1517.5
2019-Jul-08 11:35N 44°07' W 003°57'1317.6
2019-Jul-08 10:50N 44°20' W 004°01'617.9
2019-Jul-08 10:30N 44°26' W 004°03'3320.0
2019-Jul-08 08:53N 44°58' W 004°12'1422.0
2019-Jul-08 08:15N 45°11' W 004°16'521.7
2019-Jul-08 08:00N 45°16' W 004°17'1121.2
2019-Jul-08 07:29N 45°27' W 004°20'1321.3
2019-Jul-08 06:53N 45°40' W 004°24'821.3
2019-Jul-08 06:30N 45°47' W 004°27'1721.1
2019-Jul-08 05:43N 46°04' W 004°33'521.0
2019-Jul-08 05:28N 46°09' W 004°34'1520.8
2019-Jul-08 04:44N 46°24' W 004°39'1321.7
2019-Jul-08 04:10N 46°36' W 004°42'420.1
2019-Jul-08 03:59N 46°39' W 004°43'1520.8
2019-Jul-08 03:15N 46°54' W 004°49'620.5
2019-Jul-08 02:57N 46°60' W 004°51'920.9
2019-Jul-08 02:30N 47°09' W 004°54'1020.6
2019-Jul-08 02:00N 47°19' W 004°57'1021.2
2019-Jul-08 01:30N 47°29' W 005°02'1121.3
2019-Jul-08 01:00N 47°39' W 005°07'1121.7
2019-Jul-08 00:30N 47°50' W 005°12'1122.5
2019-Jul-08 00:01N 48°00' W 005°17'1121.6
2019-Jul-07 23:30N 48°11' W 005°11'1121.8
2019-Jul-07 23:00N 48°21' W 005°07'917.2
2019-Jul-07 22:31N 48°28' W 004°60'1121.7
2019-Jul-07 22:00N 48°39' W 004°55'1121.3
2019-Jul-07 21:30N 48°49' W 004°50'1020.8
2019-Jul-07 21:00N 48°59' W 004°45'1020.4
2019-Jul-07 20:31N 49°08' W 004°40'1020.1
2019-Jul-07 20:00N 49°18' W 004°36'1020.5
2019-Jul-07 19:30N 49°28' W 004°32'3721.0
2019-Jul-07 17:45N 50°04' W 004°17'521.3
2019-Jul-07 17:30N 50°09' W 004°15'1120.6
2019-Jul-07 16:59N 50°19' W 004°11'3 5.9
2019-Jul-07 16:31N 50°22' W 004°09'0 0.0
2019-Jul-07 16:01N 50°22' W 004°09'0 0.0
2019-Jul-07 15:31N 50°22' W 004°09'0 0.0
2019-Jul-07 15:01N 50°22' W 004°09'0 0.0
2019-Jul-07 14:31N 50°22' W 004°09'0 0.0
2019-Jul-07 14:00N 50°22' W 004°09'0 0.3
2019-Jul-07 13:31N 50°22' W 004°09'510.7
2019-Jul-07 13:00N 50°16' W 004°10'1020.4
2019-Jul-07 12:31N 50°06' W 004°07'1020.0
2019-Jul-07 12:00N 49°57' W 004°02'1020.4
2019-Jul-07 11:30N 49°47' W 003°59'1121.2
2019-Jul-07 11:00N 49°36' W 004°01'1121.3
2019-Jul-07 10:28N 49°25' W 004°01'1021.1
2019-Jul-07 10:00N 49°15' W 003°60'1221.1
2019-Jul-07 09:27N 49°03' W 003°59'1221.1
2019-Jul-07 08:52N 48°51' W 003°58'717.8
2019-Jul-07 08:27N 48°44' W 003°57'1 0.8
2019-Jul-07 07:47N 48°43' W 003°58'0 0.0
2019-Jul-07 07:29N 48°43' W 003°58'0 0.0
2019-Jul-07 06:58N 48°43' W 003°58'0 0.0
2019-Jul-07 06:29N 48°43' W 003°58'0 0.0
2019-Jul-07 06:00N 48°43' W 003°58'0 0.0
2019-Jul-07 05:27N 48°43' W 003°58'0 0.0
2019-Jul-07 04:55N 48°43' W 003°58'2 4.0
2019-Jul-07 04:30N 48°45' W 003°57'1120.0
2019-Jul-07 03:59N 48°53' W 004°07'1020.8
2019-Jul-07 03:30N 48°59' W 004°19'817.0
2019-Jul-07 03:00N 49°04' W 004°29'1717.2
2019-Jul-07 02:00N 49°16' W 004°48'917.4
2019-Jul-07 01:30N 49°22' W 004°57'917.3
2019-Jul-07 01:01N 49°28' W 005°08'917.2
2019-Jul-07 00:30N 49°33' W 005°19'917.5
2019-Jul-07 00:00N 49°38' W 005°29'917.8
2019-Jul-06 23:30N 49°44' W 005°40'918.6
2019-Jul-06 23:00N 49°49' W 005°51'1020.5
2019-Jul-06 22:30N 49°57' W 006°02'1422.1
2019-Jul-06 21:53N 50°11' W 006°03'1021.3
2019-Jul-06 21:26N 50°21' W 006°03'1121.4
2019-Jul-06 20:55N 50°29' W 006°15'1121.3
2019-Jul-06 20:25N 50°36' W 006°27'921.5
2019-Jul-06 20:00N 50°42' W 006°37'1121.5
2019-Jul-06 19:30N 50°50' W 006°49'1521.6
2019-Jul-06 18:49N 51°00' W 007°06'4321.5
2019-Jul-06 16:48N 51°31' W 007°54'621.3
2019-Jul-06 16:30N 51°36' W 008°02'1121.1
2019-Jul-06 16:00N 51°44' W 008°12'713.7
2019-Jul-06 15:31N 51°50' W 008°16'2 4.5
2019-Jul-06 15:00N 51°50' W 008°19'0 0.0
2019-Jul-06 14:30N 51°50' W 008°19'0 0.0
2019-Jul-06 14:00N 51°50' W 008°19'0 0.0
2019-Jul-06 13:30N 51°50' W 008°19'0 0.0
2019-Jul-06 13:00N 51°50' W 008°19'0 0.0
2019-Jul-06 12:30N 51°50' W 008°19'0 0.0
2019-Jul-06 12:00N 51°50' W 008°19'0 0.0
2019-Jul-06 11:30N 51°50' W 008°19'0 0.0
2019-Jul-06 11:00N 51°50' W 008°19'0 0.0
2019-Jul-06 10:30N 51°50' W 008°19'0 0.0
2019-Jul-06 10:00N 51°50' W 008°19'0 0.0
2019-Jul-06 09:30N 51°50' W 008°19'0 0.0
2019-Jul-06 09:00N 51°50' W 008°19'0 0.0
2019-Jul-06 08:30N 51°50' W 008°19'1 1.9
2019-Jul-06 08:00N 51°51' W 008°18'4 8.0
2019-Jul-06 07:30N 51°47' W 008°16'816.9
2019-Jul-06 07:00N 51°40' W 008°07'918.1
2019-Jul-06 06:30N 51°34' W 007°57'918.1
2019-Jul-06 06:00N 51°28' W 007°47'3418.2
2019-Jul-06 04:09N 51°04' W 007°07'718.4
2019-Jul-06 03:47N 50°59' W 006°60'1018.2
2019-Jul-06 03:14N 50°53' W 006°49'2121.4
2019-Jul-06 02:17N 50°39' W 006°24'  

Dump ship's entire track history